Etusivu
METAR-TAF:

METAR-TAF

Lentoasemat :

Nyala, Sudan

Leveyspiiri: 12-03-13N, Pituuspiiri: 024-57-22E, korkeus merenpinnasta: 642 m

Tämänhetkinen sää

Tämä raportti tehtiin 14 tuntia ja 33 minuuttia sitten, kello 08.00 UTC
Tuuli 18 kn koillisesta
Lämpötila 28°C
Kosteus 20%
Ilmanpaine 1017 hPa
Näkyvyys 10 km tai enemmän
ei pilviä alle 1500 m:ssä eikä cumulonimbus-pilviä

METAR: HSNN 160800Z 05018KT CAVOK 28/03 Q1017

Aika: 00:33 (22:33 UTC)


TAF: puuttuu

Säähavainnot ja -ennusteet yli 4000 lentoasemalta (METAR- ja TAF-raportit).

Käytössä olevat sääasemat on merkitty karttaan keltaisilla ja punaisilla pisteillä.

Aseta hiiri pisteen päälle nähdäksesi sääaseman nimen.

Klikkaa sitten nähdäksesi säähavainnot ja -ennusteet.

Kartan vaihtaminen: klikkaa mustalla rastilla varustettuja vihreitä pisteitä, niin voit zoomata sisään; viivalla varustettua vihreää pistettä, niin voit zoomata ulos tai vihreitä nuolia, niin pääset viereisille kartoille.


METAR-TAF: